Time;durP1;ratioP1;P1;durP2;ratioP2;P2;SDS_P1;SDS_P2;PMS_P1;PMS_P2;Temp;Humidity;BMP_temperature;BMP_pressure;BME280_temperature;BME280_humidity;BME280_pressure;Samples;Min_cycle;Max_cycle;Signal;HPM_P1;HPM_P2
2021/10/31 15:23:02;;;;;;;0.95;0.57;;;18.10;65.80;;;;;;5090206;28;20328;-60
2021/10/31 15:25:28;;;;;;;1.60;0.52;;;18.10;66.80;;;;;;5090205;28;20028;-49
2021/10/31 15:27:53;;;;;;;2.47;0.47;;;18.00;66.70;;;;;;5083557;28;20030;-43
2021/10/31 15:30:20;;;;;;;1.80;0.68;;;18.00;67.30;;;;;;5088857;28;20107;-43
2021/10/31 15:32:46;;;;;;;1.92;0.52;;;18.00;67.10;;;;;;5087412;28;20430;-40
2021/10/31 15:35:11;;;;;;;0.98;0.55;;;18.00;67.20;;;;;;5088481;28;20075;-43
2021/10/31 15:37:37;;;;;;;4.00;0.80;;;18.00;66.50;;;;;;5085456;28;20409;-46
2021/10/31 15:40:03;;;;;;;1.45;0.70;;;18.10;67.10;;;;;;5084275;28;20028;-44
2021/10/31 15:42:29;;;;;;;1.95;0.80;;;18.10;66.80;;;;;;5073678;28;20136;-49
2021/10/31 15:44:54;;;;;;;0.93;0.57;;;18.00;66.70;;;;;;5076764;28;20028;-46
2021/10/31 15:47:21;;;;;;;1.92;0.52;;;18.00;66.70;;;;;;5078237;28;20028;-42
2021/10/31 15:49:47;;;;;;;1.90;0.68;;;18.00;66.70;;;;;;5087367;28;20495;-43
2021/10/31 15:52:14;;;;;;;1.70;0.80;;;18.00;66.30;;;;;;5096801;28;20052;-45
2021/10/31 15:54:39;;;;;;;1.27;0.52;;;18.00;66.20;;;;;;5096843;28;20090;-48
2021/10/31 15:57:05;;;;;;;1.17;0.60;;;18.00;66.40;;;;;;5094910;28;20032;-46
2021/10/31 15:59:31;;;;;;;1.40;0.60;;;18.00;66.70;;;;;;5091356;28;20123;-64
2021/10/31 16:01:57;;;;;;;1.42;0.50;;;18.00;66.50;;;;;;5092708;28;20123;-45
2021/10/31 16:04:24;;;;;;;1.35;0.77;;;18.00;66.70;;;;;;5090761;28;20053;-43
2021/10/31 16:06:50;;;;;;;1.48;0.60;;;18.10;66.70;;;;;;5090197;28;20021;-46
2021/10/31 16:09:15;;;;;;;2.88;0.55;;;18.00;67.60;;;;;;5092804;28;20021;-47
2021/10/31 16:11:41;;;;;;;0.68;0.47;;;18.00;66.70;;;;;;5084237;28;20428;-41
2021/10/31 16:14:07;;;;;;;1.70;0.60;;;18.00;67.50;;;;;;5088759;28;20024;-43
2021/10/31 16:16:32;;;;;;;1.00;0.70;;;18.00;67.80;;;;;;5088607;28;20059;-46
2021/10/31 16:18:58;;;;;;;1.38;0.40;;;18.00;67.90;;;;;;5093065;28;20025;-47
2021/10/31 16:21:25;;;;;;;1.30;0.60;;;18.00;67.10;;;;;;5094427;28;20044;-47
2021/10/31 16:23:50;;;;;;;1.10;0.63;;;17.90;67.10;;;;;;5085339;28;20112;-43
2021/10/31 16:26:19;;;;;;;0.93;0.45;;;17.90;67.40;;;;;;5093835;28;20051;-42
2021/10/31 16:28:45;;;;;;;1.23;0.65;;;17.90;67.30;;;;;;5091948;28;20034;-46
2021/10/31 16:31:12;;;;;;;2.95;0.80;;;17.90;67.10;;;;;;5084898;28;20047;-45
2021/10/31 16:33:38;;;;;;;2.03;0.57;;;17.90;66.90;;;;;;5081463;28;20054;-50
2021/10/31 16:36:03;;;;;;;2.67;0.60;;;17.90;67.20;;;;;;5065787;28;20419;-48
2021/10/31 16:38:29;;;;;;;1.13;0.60;;;18.00;67.50;;;;;;5062507;28;20029;-48
2021/10/31 16:40:55;;;;;;;1.08;0.40;;;18.00;67.90;;;;;;5065663;28;20039;-55
2021/10/31 16:43:21;;;;;;;2.92;2.63;;;18.00;67.80;;;;;;5078765;28;20056;-55
2021/10/31 16:45:47;;;;;;;1.77;1.67;;;18.00;67.80;;;;;;5078822;28;20041;-48
2021/10/31 16:48:13;;;;;;;1.75;1.40;;;18.10;67.70;;;;;;5077065;28;20032;-44
2021/10/31 16:50:39;;;;;;;2.97;1.30;;;18.10;67.70;;;;;;5058616;28;20025;-46
2021/10/31 16:53:11;;;;;;;3.17;1.38;;;18.10;68.10;;;;;;5061236;28;20025;-45
2021/10/31 16:55:37;;;;;;;1.77;1.08;;;18.10;68.00;;;;;;5072123;28;20601;-53
2021/10/31 16:58:03;;;;;;;1.55;1.30;;;18.10;68.40;;;;;;5070670;28;20048;-45
2021/10/31 17:00:29;;;;;;;2.15;1.17;;;18.00;68.60;;;;;;5077510;28;20028;-46
2021/10/31 17:02:55;;;;;;;0.90;0.90;;;18.00;68.80;;;;;;5075014;28;20036;-46
2021/10/31 17:05:20;;;;;;;1.77;1.15;;;18.00;69.00;;;;;;5075254;28;20032;-46
2021/10/31 17:07:54;;;;;;;5.68;1.25;;;18.00;69.10;;;;;;5069938;28;20104;-44
2021/10/31 17:10:29;;;;;;;1.77;1.05;;;18.00;69.30;;;;;;5072213;28;20036;-44
2021/10/31 17:12:55;;;;;;;1.33;1.15;;;18.00;69.30;;;;;;5073437;28;20052;-46
2021/10/31 17:15:23;;;;;;;2.40;0.80;;;18.00;69.30;;;;;;5076900;28;20033;-42
2021/10/31 17:17:49;;;;;;;1.15;0.75;;;18.10;69.50;;;;;;5076677;28;20024;-43
2021/10/31 17:20:14;;;;;;;2.38;1.00;;;18.10;70.40;;;;;;5075757;28;20155;-48
2021/10/31 17:22:40;;;;;;;1.80;0.85;;;18.00;69.60;;;;;;5076771;28;20388;-45
2021/10/31 17:25:06;;;;;;;2.30;0.70;;;18.10;69.50;;;;;;5081383;28;20031;-50
2021/10/31 17:27:32;;;;;;;1.58;0.80;;;18.10;69.70;;;;;;5077245;28;20459;-47
2021/10/31 17:29:58;;;;;;;0.85;0.80;;;18.10;69.60;;;;;;5074059;28;20085;-49
2021/10/31 17:32:23;;;;;;;0.80;0.55;;;18.10;69.70;;;;;;5072326;28;20124;-50
2021/10/31 17:34:49;;;;;;;1.20;0.68;;;18.00;69.60;;;;;;5074094;28;20029;-47
2021/10/31 17:37:14;;;;;;;1.60;0.63;;;18.10;69.80;;;;;;5077290;28;21368;-44
2021/10/31 17:39:40;;;;;;;1.25;0.60;;;18.10;69.80;;;;;;5078364;28;20052;-47
2021/10/31 17:42:06;;;;;;;0.80;0.50;;;18.20;69.40;;;;;;5073552;28;20025;-46
2021/10/31 17:44:37;;;;;;;0.93;0.70;;;18.20;69.60;;;;;;5075120;28;20021;-47
2021/10/31 17:47:04;;;;;;;0.75;0.70;;;18.20;69.60;;;;;;5073468;28;20039;-43
2021/10/31 17:49:33;;;;;;;0.90;0.50;;;18.10;69.70;;;;;;5073728;28;20372;-45
2021/10/31 17:51:59;;;;;;;0.93;0.70;;;18.20;69.80;;;;;;5073159;28;20463;-47
2021/10/31 17:54:25;;;;;;;1.73;0.63;;;18.20;69.90;;;;;;5076739;28;20027;-47
2021/10/31 17:56:51;;;;;;;1.00;0.73;;;18.10;69.90;;;;;;5074616;28;20033;-55
2021/10/31 17:59:21;;;;;;;2.97;0.70;;;18.20;69.60;;;;;;5073626;28;20095;-60
2021/10/31 18:01:47;;;;;;;1.35;0.47;;;18.20;69.80;;;;;;5070443;28;20052;-55
2021/10/31 18:04:13;;;;;;;2.15;0.70;;;18.20;70.00;;;;;;5071810;28;20085;-41
2021/10/31 18:06:38;;;;;;;0.85;0.80;;;18.20;70.00;;;;;;5070459;28;20030;-48
2021/10/31 18:09:08;;;;;;;10.32;0.73;;;18.20;70.10;;;;;;5074925;28;20096;-51
2021/10/31 18:11:33;;;;;;;2.78;0.75;;;18.10;70.40;;;;;;5079933;28;20042;-43
2021/10/31 18:13:59;;;;;;;1.45;0.90;;;18.20;70.30;;;;;;5074638;28;20084;-39
2021/10/31 18:16:25;;;;;;;1.23;0.50;;;18.20;70.40;;;;;;5076850;28;20049;-47
2021/10/31 18:18:51;;;;;;;4.15;0.90;;;18.20;70.30;;;;;;5069158;28;20058;-43
2021/10/31 18:21:16;;;;;;;1.65;0.80;;;18.10;70.30;;;;;;5071487;28;20368;-42
2021/10/31 18:23:42;;;;;;;1.15;1.00;;;18.20;70.60;;;;;;5072878;28;20162;-41
2021/10/31 18:26:07;;;;;;;3.00;2.20;;;18.20;70.90;;;;;;5074763;28;20032;-51
2021/10/31 18:28:33;;;;;;;1.83;1.73;;;18.10;71.30;;;;;;5075952;28;20044;-43
2021/10/31 18:31:00;;;;;;;1.77;1.50;;;18.10;71.20;;;;;;5071689;28;20036;-42
2021/10/31 18:33:26;;;;;;;2.45;1.52;;;18.10;71.30;;;;;;5075636;28;20029;-40
2021/10/31 18:35:51;;;;;;;0.93;0.90;;;18.10;71.30;;;;;;5074749;28;20089;-45
2021/10/31 18:38:17;;;;;;;2.13;1.23;;;18.10;71.20;;;;;;5074418;28;20063;-40
2021/10/31 18:40:43;;;;;;;0.90;0.90;;;18.10;71.20;;;;;;5070657;28;20036;-42
2021/10/31 18:43:09;;;;;;;1.23;1.13;;;18.10;71.20;;;;;;5064288;28;20033;-40
2021/10/31 18:45:35;;;;;;;0.98;0.98;;;18.10;71.20;;;;;;5065533;28;20032;-43
2021/10/31 18:48:01;;;;;;;1.23;1.13;;;18.10;71.20;;;;;;5076921;28;20562;-41
2021/10/31 18:50:28;;;;;;;1.15;0.90;;;18.10;71.10;;;;;;5062975;28;20082;-46
2021/10/31 18:52:53;;;;;;;0.82;0.82;;;18.10;71.10;;;;;;5076116;28;20041;-48
2021/10/31 18:55:21;;;;;;;0.70;0.70;;;18.10;71.20;;;;;;5074898;28;20043;-42
2021/10/31 18:57:47;;;;;;;1.67;1.15;;;18.10;71.00;;;;;;5076509;28;20032;-41
2021/10/31 19:00:14;;;;;;;1.15;0.93;;;18.10;71.20;;;;;;4714442;28;9999635;-40
2021/10/31 19:02:40;;;;;;;0.95;0.80;;;18.10;71.10;;;;;;5057525;28;20367;-47
2021/10/31 19:05:07;;;;;;;0.88;0.85;;;18.10;71.10;;;;;;5062175;28;20097;-46
2021/10/31 19:07:33;;;;;;;1.20;1.00;;;18.10;71.00;;;;;;5073716;28;20510;-44
2021/10/31 19:09:59;;;;;;;1.05;0.88;;;18.10;71.10;;;;;;5069472;28;20043;-45
2021/10/31 19:12:25;;;;;;;0.77;0.77;;;18.10;71.10;;;;;;5071575;28;20043;-46
2021/10/31 19:14:50;;;;;;;0.90;0.80;;;18.10;71.20;;;;;;5073338;28;20480;-46
2021/10/31 19:17:18;;;;;;;0.73;0.70;;;18.10;71.10;;;;;;5072544;28;20440;-53
2021/10/31 19:19:44;;;;;;;1.40;0.80;;;18.10;71.10;;;;;;5058186;28;20040;-50
2021/10/31 19:22:09;;;;;;;0.75;0.70;;;18.10;71.00;;;;;;5061320;28;20490;-53
2021/10/31 19:24:35;;;;;;;2.17;1.08;;;18.10;71.00;;;;;;5060462;28;20173;-40
2021/10/31 19:27:01;;;;;;;0.65;0.65;;;18.10;71.00;;;;;;5073571;28;20024;-41
2021/10/31 19:29:27;;;;;;;1.10;0.90;;;18.10;71.00;;;;;;5070998;28;20029;-44
2021/10/31 19:31:53;;;;;;;1.13;0.90;;;18.10;71.10;;;;;;5059917;28;20043;-44
2021/10/31 19:34:19;;;;;;;1.13;0.85;;;18.10;70.90;;;;;;5071487;28;20060;-45
2021/10/31 19:36:45;;;;;;;1.33;0.85;;;18.10;71.00;;;;;;5069534;28;20082;-52
2021/10/31 19:39:13;;;;;;;1.50;1.00;;;18.10;71.00;;;;;;5070553;28;20060;-52
2021/10/31 19:41:38;;;;;;;1.30;0.70;;;18.10;71.10;;;;;;5073286;28;20032;-43
2021/10/31 19:44:05;;;;;;;0.65;0.50;;;18.10;71.00;;;;;;5061394;28;20136;-43
2021/10/31 19:46:31;;;;;;;1.27;0.73;;;18.10;71.10;;;;;;5068667;28;20090;-48
2021/10/31 19:48:57;;;;;;;1.20;0.90;;;18.10;71.70;;;;;;5058257;28;20029;-47
2021/10/31 19:51:22;;;;;;;0.60;0.57;;;18.10;71.00;;;;;;5071056;28;20448;-43
2021/10/31 19:53:48;;;;;;;0.60;0.60;;;18.10;71.10;;;;;;5071288;28;20459;-42
2021/10/31 19:56:15;;;;;;;1.00;0.90;;;18.10;71.00;;;;;;5057747;28;20578;-44
2021/10/31 19:58:41;;;;;;;1.30;1.15;;;18.10;70.90;;;;;;5067123;28;20128;-47
2021/10/31 20:01:06;;;;;;;1.13;0.70;;;18.10;71.10;;;;;;5067917;28;20115;-44
2021/10/31 20:03:32;;;;;;;1.42;0.90;;;18.10;71.00;;;;;;5070847;28;20032;-45
2021/10/31 20:05:58;;;;;;;1.40;0.80;;;18.10;71.00;;;;;;5059665;28;20025;-45
2021/10/31 20:08:29;;;;;;;0.85;0.70;;;18.10;71.00;;;;;;5073146;28;20039;-46
2021/10/31 20:10:55;;;;;;;0.60;0.60;;;18.10;71.00;;;;;;5072502;28;20041;-43
2021/10/31 20:13:21;;;;;;;0.77;0.70;;;18.10;70.90;;;;;;5075162;28;20039;-46
2021/10/31 20:15:46;;;;;;;0.95;0.60;;;18.10;70.90;;;;;;5073337;28;20024;-49
2021/10/31 20:18:14;;;;;;;1.20;0.63;;;18.10;70.90;;;;;;5076286;28;20033;-48
2021/10/31 20:20:43;;;;;;;1.10;0.60;;;18.10;70.80;;;;;;5056428;28;20407;-45
2021/10/31 20:23:09;;;;;;;0.80;0.60;;;18.10;70.70;;;;;;5077868;28;20476;-44
2021/10/31 20:25:35;;;;;;;0.90;0.70;;;18.10;70.70;;;;;;5074218;28;20061;-45
2021/10/31 20:28:01;;;;;;;0.75;0.50;;;18.10;70.70;;;;;;5075178;28;20029;-45
2021/10/31 20:30:26;;;;;;;1.08;0.47;;;18.10;70.80;;;;;;5076262;28;20043;-44
2021/10/31 20:32:52;;;;;;;2.35;0.70;;;18.10;70.70;;;;;;5071256;28;20029;-43
2021/10/31 20:35:18;;;;;;;0.88;0.65;;;18.10;70.80;;;;;;5078158;28;20077;-44
2021/10/31 20:37:44;;;;;;;0.95;0.70;;;18.10;70.90;;;;;;5071598;28;20115;-41
2021/10/31 20:40:11;;;;;;;0.88;0.70;;;18.10;70.80;;;;;;5078374;28;20027;-41
2021/10/31 20:42:36;;;;;;;0.55;0.40;;;18.10;70.60;;;;;;5076913;28;20036;-42
2021/10/31 20:45:03;;;;;;;0.80;0.60;;;18.10;70.80;;;;;;5077564;28;20016;-43
2021/10/31 20:47:29;;;;;;;0.77;0.50;;;18.10;70.70;;;;;;5074230;28;20463;-46
2021/10/31 20:49:55;;;;;;;0.95;0.60;;;18.10;70.80;;;;;;5075081;28;20020;-44
2021/10/31 20:52:21;;;;;;;0.80;0.60;;;18.10;70.70;;;;;;5074554;28;20082;-41
2021/10/31 20:54:47;;;;;;;1.25;0.60;;;18.10;70.80;;;;;;5073441;28;20363;-41
2021/10/31 20:57:13;;;;;;;0.68;0.47;;;18.10;70.70;;;;;;5077338;28;20044;-44
2021/10/31 20:59:39;;;;;;;0.88;0.60;;;18.10;70.70;;;;;;5074476;28;20093;-43
2021/10/31 21:02:05;;;;;;;1.05;0.73;;;18.10;70.70;;;;;;5070568;28;20775;-44
2021/10/31 21:04:31;;;;;;;1.13;0.50;;;18.10;70.70;;;;;;5077442;28;20013;-44
2021/10/31 21:06:59;;;;;;;0.60;0.45;;;18.10;70.60;;;;;;5075649;28;20033;-44
2021/10/31 21:09:26;;;;;;;0.90;0.60;;;18.10;70.70;;;;;;5074481;28;20081;-40
2021/10/31 21:11:52;;;;;;;0.52;0.52;;;18.10;70.70;;;;;;5077140;28;20111;-46
2021/10/31 21:14:17;;;;;;;0.90;0.50;;;18.20;70.50;;;;;;5073357;28;20036;-45
2021/10/31 21:16:44;;;;;;;1.35;0.50;;;18.20;70.30;;;;;;5075105;28;20029;-49
2021/10/31 21:19:11;;;;;;;1.08;0.68;;;18.20;70.30;;;;;;5075080;28;20084;-44
2021/10/31 21:21:36;;;;;;;1.10;0.70;;;18.20;70.20;;;;;;5073614;28;20364;-44
2021/10/31 21:24:09;;;;;;;0.70;0.70;;;18.10;70.30;;;;;;5074939;28;20020;-43
2021/10/31 21:26:36;;;;;;;0.60;0.50;;;18.10;70.30;;;;;;5072961;28;20031;-45
2021/10/31 21:29:04;;;;;;;0.43;0.40;;;18.10;70.40;;;;;;5073170;28;20025;-46
2021/10/31 21:31:29;;;;;;;2.38;0.60;;;18.10;70.30;;;;;;5075794;28;20025;-43
2021/10/31 21:33:55;;;;;;;0.98;0.38;;;18.20;70.40;;;;;;5070609;28;20104;-43
2021/10/31 21:36:21;;;;;;;0.50;0.40;;;18.20;70.40;;;;;;5076416;28;20040;-50
2021/10/31 21:38:50;;;;;;;0.35;0.35;;;18.20;70.20;;;;;;5075369;28;20033;-52
2021/10/31 21:41:30;;;;;;;0.50;0.50;;;18.20;70.20;;;;;;5077281;28;20032;-47
2021/10/31 21:43:56;;;;;;;0.50;0.30;;;18.20;70.20;;;;;;5068884;28;20035;-47
2021/10/31 21:46:22;;;;;;;0.63;0.52;;;18.20;70.20;;;;;;5065983;28;20024;-50
2021/10/31 21:48:48;;;;;;;0.60;0.40;;;18.20;70.20;;;;;;5068210;28;20036;-53
2021/10/31 21:51:14;;;;;;;0.70;0.60;;;18.20;70.10;;;;;;5076002;28;20032;-55
2021/10/31 21:53:41;;;;;;;0.40;0.30;;;18.20;70.10;;;;;;5057220;28;20452;-49
2021/10/31 21:56:06;;;;;;;0.50;0.43;;;18.20;70.20;;;;;;5072190;28;20060;-48
2021/10/31 21:58:32;;;;;;;0.40;0.40;;;18.20;70.40;;;;;;5078475;28;20021;-43
2021/10/31 22:00:58;;;;;;;0.45;0.40;;;18.10;70.10;;;;;;5069037;28;20066;-45
2021/10/31 22:03:24;;;;;;;0.70;0.50;;;18.20;70.20;;;;;;5077639;28;20036;-46
2021/10/31 22:05:49;;;;;;;0.60;0.40;;;18.10;70.20;;;;;;5075995;28;20024;-43
2021/10/31 22:08:15;;;;;;;0.55;0.52;;;18.10;70.30;;;;;;5077901;28;20016;-44
2021/10/31 22:10:41;;;;;;;0.70;0.30;;;18.10;70.30;;;;;;5075491;28;20838;-40
2021/10/31 22:13:07;;;;;;;0.60;0.43;;;18.10;70.30;;;;;;5074214;28;20060;-40
2021/10/31 22:15:34;;;;;;;0.60;0.38;;;18.10;70.20;;;;;;5075984;28;20032;-43
2021/10/31 22:18:00;;;;;;;0.85;0.50;;;18.20;70.10;;;;;;5075925;28;20030;-42
2021/10/31 22:20:26;;;;;;;1.63;1.52;;;18.30;69.80;;;;;;5076801;28;20028;-42
2021/10/31 22:22:52;;;;;;;2.22;2.05;;;18.30;70.10;;;;;;5069825;28;20044;-44
2021/10/31 22:25:18;;;;;;;1.55;1.45;;;18.20;70.30;;;;;;5076403;28;20036;-42
2021/10/31 22:27:45;;;;;;;1.05;1.00;;;18.20;70.60;;;;;;5072267;28;20025;-42
2021/10/31 22:30:11;;;;;;;1.33;0.80;;;18.20;70.60;;;;;;5072228;28;20131;-43
2021/10/31 22:32:36;;;;;;;0.90;0.90;;;18.10;70.70;;;;;;5075335;28;20052;-43
2021/10/31 22:35:02;;;;;;;0.80;0.70;;;18.10;70.70;;;;;;5072358;28;20112;-42
2021/10/31 22:37:28;;;;;;;1.02;0.90;;;18.10;70.70;;;;;;5070943;28;20530;-41
2021/10/31 22:39:53;;;;;;;0.70;0.70;;;18.10;70.70;;;;;;5074626;28;20128;-42
2021/10/31 22:42:19;;;;;;;1.15;0.70;;;18.10;70.80;;;;;;5075738;28;20597;-42
2021/10/31 22:44:45;;;;;;;0.70;0.70;;;18.10;70.70;;;;;;5073765;28;20448;-42
2021/10/31 22:47:10;;;;;;;0.70;0.70;;;18.10;70.70;;;;;;5075355;28;20017;-42
2021/10/31 22:49:36;;;;;;;0.80;0.80;;;18.10;70.60;;;;;;5067515;28;20425;-42
2021/10/31 22:52:02;;;;;;;1.17;0.57;;;18.10;70.70;;;;;;5072553;28;20094;-42
2021/10/31 22:54:27;;;;;;;0.60;0.60;;;18.10;70.70;;;;;;5071226;28;20036;-42
2021/10/31 22:56:53;;;;;;;0.30;0.30;;;18.00;70.60;;;;;;5067245;28;20070;-42
2021/10/31 22:59:19;;;;;;;0.47;0.30;;;18.10;70.60;;;;;;5072845;28;20024;-43
2021/10/31 23:01:44;;;;;;;0.40;0.40;;;18.00;70.50;;;;;;5073314;28;20385;-43
2021/10/31 23:04:10;;;;;;;0.93;0.52;;;18.00;70.50;;;;;;5072854;28;20035;-42
2021/10/31 23:06:36;;;;;;;0.50;0.38;;;18.10;70.50;;;;;;5069615;28;20032;-42
2021/10/31 23:09:01;;;;;;;0.52;0.30;;;18.00;71.20;;;;;;5067468;28;20040;-44
2021/10/31 23:11:28;;;;;;;0.40;0.30;;;18.00;70.50;;;;;;5071578;28;20079;-42
2021/10/31 23:13:54;;;;;;;0.30;0.30;;;18.00;70.40;;;;;;5071154;28;20567;-42
2021/10/31 23:16:21;;;;;;;0.50;0.50;;;18.10;70.40;;;;;;5075276;28;20087;-43
2021/10/31 23:18:48;;;;;;;0.45;0.45;;;18.00;70.30;;;;;;5067033;28;20020;-42
2021/10/31 23:21:14;;;;;;;0.47;0.30;;;18.10;70.40;;;;;;5071279;28;20043;-42
2021/10/31 23:23:40;;;;;;;1.40;0.40;;;18.00;70.30;;;;;;5069870;28;20028;-42
2021/10/31 23:26:06;;;;;;;0.40;0.30;;;18.10;70.30;;;;;;5070263;28;20021;-43
2021/10/31 23:28:31;;;;;;;0.20;0.20;;;18.00;70.30;;;;;;5066962;28;20020;-42
2021/10/31 23:30:57;;;;;;;0.30;0.17;;;18.00;70.50;;;;;;5069925;28;20451;-42
2021/10/31 23:33:23;;;;;;;0.85;0.40;;;18.00;70.30;;;;;;5075086;28;20023;-44
2021/10/31 23:35:48;;;;;;;0.25;0.20;;;18.00;70.40;;;;;;5071911;28;20363;-41
2021/10/31 23:38:14;;;;;;;0.30;0.25;;;18.00;70.40;;;;;;5074410;28;20040;-43
2021/10/31 23:40:43;;;;;;;0.40;0.30;;;18.10;70.50;;;;;;5075029;28;20032;-41
2021/10/31 23:43:09;;;;;;;0.30;0.30;;;18.20;70.00;;;;;;5067439;28;20033;-42
2021/10/31 23:45:35;;;;;;;2.80;0.30;;;18.10;70.20;;;;;;5080422;28;20110;-39
2021/10/31 23:48:01;;;;;;;0.45;0.30;;;18.10;70.20;;;;;;5078803;28;20206;-39
2021/10/31 23:50:26;;;;;;;2.95;0.68;;;18.10;70.30;;;;;;4721802;28;9999695;-40
2021/10/31 23:52:52;;;;;;;3.33;0.40;;;18.00;70.40;;;;;;5078078;28;20024;-39
2021/10/31 23:55:18;;;;;;;2.45;0.47;;;18.00;70.50;;;;;;5077447;28;20039;-39
2021/10/31 23:57:44;;;;;;;0.40;0.32;;;18.00;70.50;;;;;;5079056;28;20029;-39
